Aviation Digital Data Service (ADDS)

Output produced by METARs form (0847 UTC 18 February 2019)
found at http://www.aviationweather.gov/metar/data/
 
METAR text: UGTB 180830Z 29025G35KT 9999 FEW041 SCT047 08/M02 Q1011 NOSIG
Conditions at: UGTB (TBILISI/NOVO-AL , GE) observed 0830 UTC 18 February 2019
Temperature: 8.0°C (46°F)
Dewpoint: -2.0°C (28°F) [RH = 49%]
Pressure (altimeter): 29.85 inches Hg (1011.0 mb)
Winds: from the WNW (290 degrees) at 29 MPH (25 knots; 12.9 m/s)
gusting to 40 MPH (35 knots; 18.0 m/s)
Visibility: 6 or more miles (10+ km)
Ceiling: at least 12,000 feet AGL
Clouds: few clouds at 4100 feet AGL
scattered clouds at 4700 feet AGL
Weather: no significant weather observed at this time

METAR text: UGTB 180800Z 29028G40KT 9999 SCT045 08/M02 Q1012 NOSIG
Conditions at: UGTB (TBILISI/NOVO-AL , GE) observed 0800 UTC 18 February 2019
Temperature: 8.0°C (46°F)
Dewpoint: -2.0°C (28°F) [RH = 49%]
Pressure (altimeter): 29.88 inches Hg (1012.0 mb)
Winds: from the WNW (290 degrees) at 32 MPH (28 knots; 14.4 m/s)
gusting to 46 MPH (40 knots; 20.6 m/s)
Visibility: 6 or more miles (10+ km)
Ceiling: at least 12,000 feet AGL
Clouds: scattered clouds at 4500 feet AGL
Weather: no significant weather observed at this time

METAR text: UGTB 180730Z 30022G35KT 270V330 9999 FEW040 SCT050 08/M02 Q1012 NOSIG
Conditions at: UGTB (TBILISI/NOVO-AL , GE) observed 0730 UTC 18 February 2019
Temperature: 8.0°C (46°F)
Dewpoint: -2.0°C (28°F) [RH = 49%]
Pressure (altimeter): 29.88 inches Hg (1012.0 mb)
Winds: from the WNW (300 degrees) at 25 MPH (22 knots; 11.3 m/s)
gusting to 40 MPH (35 knots; 18.0 m/s)
Visibility: 6 or more miles (10+ km)
Ceiling: at least 12,000 feet AGL
Clouds: few clouds at 4000 feet AGL
scattered clouds at 5000 feet AGL
Weather: no significant weather observed at this time

METAR text: UGTB 180700Z 29022G35KT 260V320 9999 FEW042 08/M02 Q1013 NOSIG
Conditions at: UGTB (TBILISI/NOVO-AL , GE) observed 0700 UTC 18 February 2019
Temperature: 8.0°C (46°F)
Dewpoint: -2.0°C (28°F) [RH = 49%]
Pressure (altimeter): 29.91 inches Hg (1013.0 mb)
Winds: from the WNW (290 degrees) at 25 MPH (22 knots; 11.3 m/s)
gusting to 40 MPH (35 knots; 18.0 m/s)
Visibility: 6 or more miles (10+ km)
Ceiling: at least 12,000 feet AGL
Clouds: few clouds at 4200 feet AGL
Weather: no significant weather observed at this time

METAR text: UGTB 180630Z 30021KT 9999 FEW045 07/M02 Q1013 NOSIG
Conditions at: UGTB (TBILISI/NOVO-AL , GE) observed 0630 UTC 18 February 2019
Temperature: 7.0°C (45°F)
Dewpoint: -2.0°C (28°F) [RH = 53%]
Pressure (altimeter): 29.91 inches Hg (1013.0 mb)
Winds: from the WNW (300 degrees) at 24 MPH (21 knots; 10.8 m/s)
Visibility: 6 or more miles (10+ km)
Ceiling: at least 12,000 feet AGL
Clouds: few clouds at 4500 feet AGL
Weather: no significant weather observed at this time

METAR text: UGTB 180600Z 30022KT 9999 FEW041 SCT052 06/M02 Q1013 NOSIG
Conditions at: UGTB (TBILISI/NOVO-AL , GE) observed 0600 UTC 18 February 2019
Temperature: 6.0°C (43°F)
Dewpoint: -2.0°C (28°F) [RH = 56%]
Pressure (altimeter): 29.91 inches Hg (1013.0 mb)
Winds: from the WNW (300 degrees) at 25 MPH (22 knots; 11.3 m/s)
Visibility: 6 or more miles (10+ km)
Ceiling: at least 12,000 feet AGL
Clouds: few clouds at 4100 feet AGL
scattered clouds at 5200 feet AGL
Weather: no significant weather observed at this time

METAR text: UGTB 180530Z 30022G34KT 9999 FEW037 06/M02 Q1014 NOSIG
Conditions at: UGTB (TBILISI/NOVO-AL , GE) observed 0530 UTC 18 February 2019
Temperature: 6.0°C (43°F)
Dewpoint: -2.0°C (28°F) [RH = 56%]
Pressure (altimeter): 29.94 inches Hg (1014.0 mb)
Winds: from the WNW (300 degrees) at 25 MPH (22 knots; 11.3 m/s)
gusting to 39 MPH (34 knots; 17.5 m/s)
Visibility: 6 or more miles (10+ km)
Ceiling: at least 12,000 feet AGL
Clouds: few clouds at 3700 feet AGL
Weather: no significant weather observed at this time

METAR text: UGTB 180500Z 31021G31KT CAVOK 05/M02 Q1014 NOSIG
Conditions at: UGTB (TBILISI/NOVO-AL , GE) observed 0500 UTC 18 February 2019
Temperature: 5.0°C (41°F)
Dewpoint: -2.0°C (28°F) [RH = 60%]
Pressure (altimeter): 29.94 inches Hg (1014.0 mb)
Winds: from the NW (310 degrees) at 24 MPH (21 knots; 10.8 m/s)
gusting to 36 MPH (31 knots; 15.9 m/s)
Visibility: 6 or more miles (10+ km)
Ceiling: ceiling and visibility are OK
Clouds: unknown
Weather: no significant weather observed at this time

METAR text: UGTB 180430Z 30021KT CAVOK 05/M03 Q1014 NOSIG
Conditions at: UGTB (TBILISI/NOVO-AL , GE) observed 0430 UTC 18 February 2019
Temperature: 5.0°C (41°F)
Dewpoint: -3.0°C (27°F) [RH = 56%]
Pressure (altimeter): 29.94 inches Hg (1014.0 mb)
Winds: from the WNW (300 degrees) at 24 MPH (21 knots; 10.8 m/s)
Visibility: 6 or more miles (10+ km)
Ceiling: ceiling and visibility are OK
Clouds: unknown
Weather: no significant weather observed at this time

METAR text: UGTB 180400Z 31019KT 9999 FEW039 05/M03 Q1014 NOSIG
Conditions at: UGTB (TBILISI/NOVO-AL , GE) observed 0400 UTC 18 February 2019
Temperature: 5.0°C (41°F)
Dewpoint: -3.0°C (27°F) [RH = 56%]
Pressure (altimeter): 29.94 inches Hg (1014.0 mb)
Winds: from the NW (310 degrees) at 22 MPH (19 knots; 9.8 m/s)
Visibility: 6 or more miles (10+ km)
Ceiling: at least 12,000 feet AGL
Clouds: few clouds at 3900 feet AGL
Weather: no significant weather observed at this time

METAR text: UGTB 180330Z 29018KT 9999 FEW036 05/M03 Q1015 NOSIG
Conditions at: UGTB (TBILISI/NOVO-AL , GE) observed 0330 UTC 18 February 2019
Temperature: 5.0°C (41°F)
Dewpoint: -3.0°C (27°F) [RH = 56%]
Pressure (altimeter): 29.97 inches Hg (1015.0 mb)
Winds: from the WNW (290 degrees) at 21 MPH (18 knots; 9.3 m/s)
Visibility: 6 or more miles (10+ km)
Ceiling: at least 12,000 feet AGL
Clouds: few clouds at 3600 feet AGL
Weather: no significant weather observed at this time

METAR text: UGTB 180300Z 30016G27KT 270V330 9999 FEW034 05/M02 Q1015 NOSIG
Conditions at: UGTB (TBILISI/NOVO-AL , GE) observed 0300 UTC 18 February 2019
Temperature: 5.0°C (41°F)
Dewpoint: -2.0°C (28°F) [RH = 60%]
Pressure (altimeter): 29.97 inches Hg (1015.0 mb)
Winds: from the WNW (300 degrees) at 18 MPH (16 knots; 8.2 m/s)
gusting to 31 MPH (27 knots; 13.9 m/s)
Visibility: 6 or more miles (10+ km)
Ceiling: at least 12,000 feet AGL
Clouds: few clouds at 3400 feet AGL
Weather: no significant weather observed at this time

METAR text: UGTB 180230Z 31018KT 9999 SCT032 04/M02 Q1015 NOSIG
Conditions at: UGTB (TBILISI/NOVO-AL , GE) observed 0230 UTC 18 February 2019
Temperature: 4.0°C (39°F)
Dewpoint: -2.0°C (28°F) [RH = 65%]
Pressure (altimeter): 29.97 inches Hg (1015.0 mb)
Winds: from the NW (310 degrees) at 21 MPH (18 knots; 9.3 m/s)
Visibility: 6 or more miles (10+ km)
Ceiling: at least 12,000 feet AGL
Clouds: scattered clouds at 3200 feet AGL
Weather: no significant weather observed at this time

METAR text: UGTB 180200Z 31018KT 280V340 9999 FEW031 04/M03 Q1016 NOSIG
Conditions at: UGTB (TBILISI/NOVO-AL , GE) observed 0200 UTC 18 February 2019
Temperature: 4.0°C (39°F)
Dewpoint: -3.0°C (27°F) [RH = 60%]
Pressure (altimeter): 30.00 inches Hg (1016.0 mb)
Winds: from the NW (310 degrees) at 21 MPH (18 knots; 9.3 m/s)
Visibility: 6 or more miles (10+ km)
Ceiling: at least 12,000 feet AGL
Clouds: few clouds at 3100 feet AGL
Weather: no significant weather observed at this time

METAR text: UGTB 180130Z 31022KT 9999 FEW048 04/M02 Q1015 NOSIG
Conditions at: UGTB (TBILISI/NOVO-AL , GE) observed 0130 UTC 18 February 2019
Temperature: 4.0°C (39°F)
Dewpoint: -2.0°C (28°F) [RH = 65%]
Pressure (altimeter): 29.97 inches Hg (1015.0 mb)
Winds: from the NW (310 degrees) at 25 MPH (22 knots; 11.3 m/s)
Visibility: 6 or more miles (10+ km)
Ceiling: at least 12,000 feet AGL
Clouds: few clouds at 4800 feet AGL
Weather: no significant weather observed at this time

METAR text: UGTB 180100Z 31019KT 9999 FEW035 04/M02 Q1016 NOSIG
Conditions at: UGTB (TBILISI/NOVO-AL , GE) observed 0100 UTC 18 February 2019
Temperature: 4.0°C (39°F)
Dewpoint: -2.0°C (28°F) [RH = 65%]
Pressure (altimeter): 30.00 inches Hg (1016.0 mb)
Winds: from the NW (310 degrees) at 22 MPH (19 knots; 9.8 m/s)
Visibility: 6 or more miles (10+ km)
Ceiling: at least 12,000 feet AGL
Clouds: few clouds at 3500 feet AGL
Weather: no significant weather observed at this time

METAR text: UGTB 180030Z 30019G30KT CAVOK 04/M02 Q1016 NOSIG
Conditions at: UGTB (TBILISI/NOVO-AL , GE) observed 0030 UTC 18 February 2019
Temperature: 4.0°C (39°F)
Dewpoint: -2.0°C (28°F) [RH = 65%]
Pressure (altimeter): 30.00 inches Hg (1016.0 mb)
Winds: from the WNW (300 degrees) at 22 MPH (19 knots; 9.8 m/s)
gusting to 34 MPH (30 knots; 15.4 m/s)
Visibility: 6 or more miles (10+ km)
Ceiling: ceiling and visibility are OK
Clouds: unknown
Weather: no significant weather observed at this time

METAR text: UGTB 180000Z 30019KT CAVOK 04/M02 Q1016 NOSIG
Conditions at: UGTB (TBILISI/NOVO-AL , GE) observed 0000 UTC 18 February 2019
Temperature: 4.0°C (39°F)
Dewpoint: -2.0°C (28°F) [RH = 65%]
Pressure (altimeter): 30.00 inches Hg (1016.0 mb)
Winds: from the WNW (300 degrees) at 22 MPH (19 knots; 9.8 m/s)
Visibility: 6 or more miles (10+ km)
Ceiling: ceiling and visibility are OK
Clouds: unknown
Weather: no significant weather observed at this time

METAR text: UGTB 172330Z 30021KT CAVOK 04/M02 Q1017 NOSIG
Conditions at: UGTB (TBILISI/NOVO-AL , GE) observed 2330 UTC 17 February 2019
Temperature: 4.0°C (39°F)
Dewpoint: -2.0°C (28°F) [RH = 65%]
Pressure (altimeter): 30.03 inches Hg (1017.0 mb)
Winds: from the WNW (300 degrees) at 24 MPH (21 knots; 10.8 m/s)
Visibility: 6 or more miles (10+ km)
Ceiling: ceiling and visibility are OK
Clouds: unknown
Weather: no significant weather observed at this time

METAR text: UGTB 172300Z 31024KT 9999 FEW034 04/M02 Q1017 WS R31 NOSIG
Conditions at: UGTB (TBILISI/NOVO-AL , GE) observed 2300 UTC 17 February 2019
Temperature: 4.0°C (39°F)
Dewpoint: -2.0°C (28°F) [RH = 65%]
Pressure (altimeter): 30.03 inches Hg (1017.0 mb)
Winds: from the NW (310 degrees) at 28 MPH (24 knots; 12.3 m/s)
Visibility: 6 or more miles (10+ km)
Ceiling: at least 12,000 feet AGL
Clouds: few clouds at 3400 feet AGL
Weather: no significant weather observed at this time

METAR text: UGTB 172230Z 31023KT CAVOK 04/M02 Q1017 WS R31 NOSIG
Conditions at: UGTB (TBILISI/NOVO-AL , GE) observed 2230 UTC 17 February 2019
Temperature: 4.0°C (39°F)
Dewpoint: -2.0°C (28°F) [RH = 65%]
Pressure (altimeter): 30.03 inches Hg (1017.0 mb)
Winds: from the NW (310 degrees) at 26 MPH (23 knots; 11.8 m/s)
Visibility: 6 or more miles (10+ km)
Ceiling: ceiling and visibility are OK
Clouds: unknown
Weather: no significant weather observed at this time

METAR text: UGTB 172200Z 30020G31KT CAVOK 04/M02 Q1017 NOSIG
Conditions at: UGTB (TBILISI/NOVO-AL , GE) observed 2200 UTC 17 February 2019
Temperature: 4.0°C (39°F)
Dewpoint: -2.0°C (28°F) [RH = 65%]
Pressure (altimeter): 30.03 inches Hg (1017.0 mb)
Winds: from the WNW (300 degrees) at 23 MPH (20 knots; 10.3 m/s)
gusting to 36 MPH (31 knots; 15.9 m/s)
Visibility: 6 or more miles (10+ km)
Ceiling: ceiling and visibility are OK
Clouds: unknown
Weather: no significant weather observed at this time

METAR text: UGTB 172130Z 31028KT CAVOK 04/M02 Q1017 NOSIG
Conditions at: UGTB (TBILISI/NOVO-AL , GE) observed 2130 UTC 17 February 2019
Temperature: 4.0°C (39°F)
Dewpoint: -2.0°C (28°F) [RH = 65%]
Pressure (altimeter): 30.03 inches Hg (1017.0 mb)
Winds: from the NW (310 degrees) at 32 MPH (28 knots; 14.4 m/s)
Visibility: 6 or more miles (10+ km)
Ceiling: ceiling and visibility are OK
Clouds: unknown
Weather: no significant weather observed at this time

METAR text: UGTB 172100Z 30027G38KT CAVOK 04/M02 Q1017 NOSIG
Conditions at: UGTB (TBILISI/NOVO-AL , GE) observed 2100 UTC 17 February 2019
Temperature: 4.0°C (39°F)
Dewpoint: -2.0°C (28°F) [RH = 65%]
Pressure (altimeter): 30.03 inches Hg (1017.0 mb)
Winds: from the WNW (300 degrees) at 31 MPH (27 knots; 13.9 m/s)
gusting to 44 MPH (38 knots; 19.5 m/s)
Visibility: 6 or more miles (10+ km)
Ceiling: ceiling and visibility are OK
Clouds: unknown
Weather: no significant weather observed at this time

METAR text: UGTB 172030Z 29027G38KT CAVOK 04/M02 Q1017 NOSIG
Conditions at: UGTB (TBILISI/NOVO-AL , GE) observed 2030 UTC 17 February 2019
Temperature: 4.0°C (39°F)
Dewpoint: -2.0°C (28°F) [RH = 65%]
Pressure (altimeter): 30.03 inches Hg (1017.0 mb)
Winds: from the WNW (290 degrees) at 31 MPH (27 knots; 13.9 m/s)
gusting to 44 MPH (38 knots; 19.5 m/s)
Visibility: 6 or more miles (10+ km)
Ceiling: ceiling and visibility are OK
Clouds: unknown
Weather: no significant weather observed at this time

METAR text: UGTB 172000Z 30029G40KT CAVOK 05/M02 Q1018 NOSIG
Conditions at: UGTB (TBILISI/NOVO-AL , GE) observed 2000 UTC 17 February 2019
Temperature: 5.0°C (41°F)
Dewpoint: -2.0°C (28°F) [RH = 60%]
Pressure (altimeter): 30.06 inches Hg (1018.0 mb)
Winds: from the WNW (300 degrees) at 33 MPH (29 knots; 14.9 m/s)
gusting to 46 MPH (40 knots; 20.6 m/s)
Visibility: 6 or more miles (10+ km)
Ceiling: ceiling and visibility are OK
Clouds: unknown
Weather: no significant weather observed at this time

METAR text: UGTB 171930Z 30031G43KT CAVOK 05/M02 Q1017 NOSIG
Conditions at: UGTB (TBILISI/NOVO-AL , GE) observed 1930 UTC 17 February 2019
Temperature: 5.0°C (41°F)
Dewpoint: -2.0°C (28°F) [RH = 60%]
Pressure (altimeter): 30.03 inches Hg (1017.0 mb)
Winds: from the WNW (300 degrees) at 36 MPH (31 knots; 15.9 m/s)
gusting to 49 MPH (43 knots; 22.1 m/s)
Visibility: 6 or more miles (10+ km)
Ceiling: ceiling and visibility are OK
Clouds: unknown
Weather: no significant weather observed at this time

METAR text: UGTB 171900Z 30032KT CAVOK 05/M02 Q1017 NOSIG
Conditions at: UGTB (TBILISI/NOVO-AL , GE) observed 1900 UTC 17 February 2019
Temperature: 5.0°C (41°F)
Dewpoint: -2.0°C (28°F) [RH = 60%]
Pressure (altimeter): 30.03 inches Hg (1017.0 mb)
Winds: from the WNW (300 degrees) at 37 MPH (32 knots; 16.5 m/s)
Visibility: 6 or more miles (10+ km)
Ceiling: ceiling and visibility are OK
Clouds: unknown
Weather: no significant weather observed at this time

METAR text: UGTB 171830Z 30032G43KT CAVOK 05/M02 Q1017 NOSIG
Conditions at: UGTB (TBILISI/NOVO-AL , GE) observed 1830 UTC 17 February 2019
Temperature: 5.0°C (41°F)
Dewpoint: -2.0°C (28°F) [RH = 60%]
Pressure (altimeter): 30.03 inches Hg (1017.0 mb)
Winds: from the WNW (300 degrees) at 37 MPH (32 knots; 16.5 m/s)
gusting to 49 MPH (43 knots; 22.1 m/s)
Visibility: 6 or more miles (10+ km)
Ceiling: ceiling and visibility are OK
Clouds: unknown
Weather: no significant weather observed at this time

METAR text: UGTB 171800Z 30034G46KT CAVOK 05/M03 Q1017 NOSIG
Conditions at: UGTB (TBILISI/NOVO-AL , GE) observed 1800 UTC 17 February 2019
Temperature: 5.0°C (41°F)
Dewpoint: -3.0°C (27°F) [RH = 56%]
Pressure (altimeter): 30.03 inches Hg (1017.0 mb)
Winds: from the WNW (300 degrees) at 39 MPH (34 knots; 17.5 m/s)
gusting to 53 MPH (46 knots; 23.7 m/s)
Visibility: 6 or more miles (10+ km)
Ceiling: ceiling and visibility are OK
Clouds: unknown
Weather: no significant weather observed at this time

METAR text: UGTB 171730Z 30032G47KT CAVOK 05/M03 Q1017 NOSIG
Conditions at: UGTB (TBILISI/NOVO-AL , GE) observed 1730 UTC 17 February 2019
Temperature: 5.0°C (41°F)
Dewpoint: -3.0°C (27°F) [RH = 56%]
Pressure (altimeter): 30.03 inches Hg (1017.0 mb)
Winds: from the WNW (300 degrees) at 37 MPH (32 knots; 16.5 m/s)
gusting to 54 MPH (47 knots; 24.2 m/s)
Visibility: 6 or more miles (10+ km)
Ceiling: ceiling and visibility are OK
Clouds: unknown
Weather: no significant weather observed at this time

METAR text: UGTB 171700Z 31030G43KT CAVOK 05/M03 Q1017 NOSIG
Conditions at: UGTB (TBILISI/NOVO-AL , GE) observed 1700 UTC 17 February 2019
Temperature: 5.0°C (41°F)
Dewpoint: -3.0°C (27°F) [RH = 56%]
Pressure (altimeter): 30.03 inches Hg (1017.0 mb)
Winds: from the NW (310 degrees) at 34 MPH (30 knots; 15.4 m/s)
gusting to 49 MPH (43 knots; 22.1 m/s)
Visibility: 6 or more miles (10+ km)
Ceiling: ceiling and visibility are OK
Clouds: unknown
Weather: no significant weather observed at this time

METAR text: UGTB 171630Z 31034G44KT CAVOK 05/M03 Q1017 NOSIG
Conditions at: UGTB (TBILISI/NOVO-AL , GE) observed 1630 UTC 17 February 2019
Temperature: 5.0°C (41°F)
Dewpoint: -3.0°C (27°F) [RH = 56%]
Pressure (altimeter): 30.03 inches Hg (1017.0 mb)
Winds: from the NW (310 degrees) at 39 MPH (34 knots; 17.5 m/s)
gusting to 51 MPH (44 knots; 22.6 m/s)
Visibility: 6 or more miles (10+ km)
Ceiling: ceiling and visibility are OK
Clouds: unknown
Weather: no significant weather observed at this time

METAR text: UGTB 171600Z 31037G50KT CAVOK 05/M03 Q1017 NOSIG
Conditions at: UGTB (TBILISI/NOVO-AL , GE) observed 1600 UTC 17 February 2019
Temperature: 5.0°C (41°F)
Dewpoint: -3.0°C (27°F) [RH = 56%]
Pressure (altimeter): 30.03 inches Hg (1017.0 mb)
Winds: from the NW (310 degrees) at 43 MPH (37 knots; 19.0 m/s)
gusting to 57 MPH (50 knots; 25.7 m/s)
Visibility: 6 or more miles (10+ km)
Ceiling: ceiling and visibility are OK
Clouds: unknown
Weather: no significant weather observed at this time

METAR text: UGTB 171530Z 31038G56KT CAVOK 05/M03 Q1017 NOSIG
Conditions at: UGTB (TBILISI/NOVO-AL , GE) observed 1530 UTC 17 February 2019
Temperature: 5.0°C (41°F)
Dewpoint: -3.0°C (27°F) [RH = 56%]
Pressure (altimeter): 30.03 inches Hg (1017.0 mb)
Winds: from the NW (310 degrees) at 44 MPH (38 knots; 19.5 m/s)
gusting to 64 MPH (56 knots; 28.8 m/s)
Visibility: 6 or more miles (10+ km)
Ceiling: ceiling and visibility are OK
Clouds: unknown
Weather: no significant weather observed at this time

METAR text: UGTB 171500Z 31037G47KT CAVOK 05/M03 Q1016 NOSIG
Conditions at: UGTB (TBILISI/NOVO-AL , GE) observed 1500 UTC 17 February 2019
Temperature: 5.0°C (41°F)
Dewpoint: -3.0°C (27°F) [RH = 56%]
Pressure (altimeter): 30.00 inches Hg (1016.0 mb)
Winds: from the NW (310 degrees) at 43 MPH (37 knots; 19.0 m/s)
gusting to 54 MPH (47 knots; 24.2 m/s)
Visibility: 6 or more miles (10+ km)
Ceiling: ceiling and visibility are OK
Clouds: unknown
Weather: no significant weather observed at this time

METAR text: UGTB 171430Z 31037G48KT CAVOK 06/M03 Q1016 NOSIG
Conditions at: UGTB (TBILISI/NOVO-AL , GE) observed 1430 UTC 17 February 2019
Temperature: 6.0°C (43°F)
Dewpoint: -3.0°C (27°F) [RH = 52%]
Pressure (altimeter): 30.00 inches Hg (1016.0 mb)
Winds: from the NW (310 degrees) at 43 MPH (37 knots; 19.0 m/s)
gusting to 55 MPH (48 knots; 24.7 m/s)
Visibility: 6 or more miles (10+ km)
Ceiling: ceiling and visibility are OK
Clouds: unknown
Weather: no significant weather observed at this time

METAR text: UGTB 171400Z 32039G51KT CAVOK 06/M03 Q1016 NOSIG
Conditions at: UGTB (TBILISI/NOVO-AL , GE) observed 1400 UTC 17 February 2019
Temperature: 6.0°C (43°F)
Dewpoint: -3.0°C (27°F) [RH = 52%]
Pressure (altimeter): 30.00 inches Hg (1016.0 mb)
Winds: from the NW (320 degrees) at 45 MPH (39 knots; 20.1 m/s)
gusting to 59 MPH (51 knots; 26.2 m/s)
Visibility: 6 or more miles (10+ km)
Ceiling: ceiling and visibility are OK
Clouds: unknown
Weather: no significant weather observed at this time

METAR text: UGTB 171330Z 31039G50KT CAVOK 06/M03 Q1016 NOSIG
Conditions at: UGTB (TBILISI/NOVO-AL , GE) observed 1330 UTC 17 February 2019
Temperature: 6.0°C (43°F)
Dewpoint: -3.0°C (27°F) [RH = 52%]
Pressure (altimeter): 30.00 inches Hg (1016.0 mb)
Winds: from the NW (310 degrees) at 45 MPH (39 knots; 20.1 m/s)
gusting to 57 MPH (50 knots; 25.7 m/s)
Visibility: 6 or more miles (10+ km)
Ceiling: ceiling and visibility are OK
Clouds: unknown
Weather: no significant weather observed at this time

METAR text: UGTB 171300Z 31038G50KT CAVOK 06/M03 Q1017 NOSIG
Conditions at: UGTB (TBILISI/NOVO-AL , GE) observed 1300 UTC 17 February 2019
Temperature: 6.0°C (43°F)
Dewpoint: -3.0°C (27°F) [RH = 52%]
Pressure (altimeter): 30.03 inches Hg (1017.0 mb)
Winds: from the NW (310 degrees) at 44 MPH (38 knots; 19.5 m/s)
gusting to 57 MPH (50 knots; 25.7 m/s)
Visibility: 6 or more miles (10+ km)
Ceiling: ceiling and visibility are OK
Clouds: unknown
Weather: no significant weather observed at this time

METAR text: UGTB 171230Z 31035G46KT CAVOK 08/M02 Q1017 NOSIG
Conditions at: UGTB (TBILISI/NOVO-AL , GE) observed 1230 UTC 17 February 2019
Temperature: 8.0°C (46°F)
Dewpoint: -2.0°C (28°F) [RH = 49%]
Pressure (altimeter): 30.03 inches Hg (1017.0 mb)
Winds: from the NW (310 degrees) at 40 MPH (35 knots; 18.0 m/s)
gusting to 53 MPH (46 knots; 23.7 m/s)
Visibility: 6 or more miles (10+ km)
Ceiling: ceiling and visibility are OK
Clouds: unknown
Weather: no significant weather observed at this time

METAR text: UGTB 171200Z 31034G45KT CAVOK 08/M02 Q1017 NOSIG
Conditions at: UGTB (TBILISI/NOVO-AL , GE) observed 1200 UTC 17 February 2019
Temperature: 8.0°C (46°F)
Dewpoint: -2.0°C (28°F) [RH = 49%]
Pressure (altimeter): 30.03 inches Hg (1017.0 mb)
Winds: from the NW (310 degrees) at 39 MPH (34 knots; 17.5 m/s)
gusting to 52 MPH (45 knots; 23.1 m/s)
Visibility: 6 or more miles (10+ km)
Ceiling: ceiling and visibility are OK
Clouds: unknown
Weather: no significant weather observed at this time

METAR text: UGTB 171130Z 31033G45KT CAVOK 08/M03 Q1017 NOSIG
Conditions at: UGTB (TBILISI/NOVO-AL , GE) observed 1130 UTC 17 February 2019
Temperature: 8.0°C (46°F)
Dewpoint: -3.0°C (27°F) [RH = 46%]
Pressure (altimeter): 30.03 inches Hg (1017.0 mb)
Winds: from the NW (310 degrees) at 38 MPH (33 knots; 17.0 m/s)
gusting to 52 MPH (45 knots; 23.1 m/s)
Visibility: 6 or more miles (10+ km)
Ceiling: ceiling and visibility are OK
Clouds: unknown
Weather: no significant weather observed at this time

METAR text: UGTB 171100Z 32034G44KT CAVOK 08/M02 Q1018 NOSIG
Conditions at: UGTB (TBILISI/NOVO-AL , GE) observed 1100 UTC 17 February 2019
Temperature: 8.0°C (46°F)
Dewpoint: -2.0°C (28°F) [RH = 49%]
Pressure (altimeter): 30.06 inches Hg (1018.0 mb)
Winds: from the NW (320 degrees) at 39 MPH (34 knots; 17.5 m/s)
gusting to 51 MPH (44 knots; 22.6 m/s)
Visibility: 6 or more miles (10+ km)
Ceiling: ceiling and visibility are OK
Clouds: unknown
Weather: no significant weather observed at this time

METAR text: UGTB 171030Z 31032G44KT CAVOK 09/M02 Q1017 NOSIG
Conditions at: UGTB (TBILISI/NOVO-AL , GE) observed 1030 UTC 17 February 2019
Temperature: 9.0°C (48°F)
Dewpoint: -2.0°C (28°F) [RH = 46%]
Pressure (altimeter): 30.03 inches Hg (1017.0 mb)
Winds: from the NW (310 degrees) at 37 MPH (32 knots; 16.5 m/s)
gusting to 51 MPH (44 knots; 22.6 m/s)
Visibility: 6 or more miles (10+ km)
Ceiling: ceiling and visibility are OK
Clouds: unknown
Weather: no significant weather observed at this time

METAR text: UGTB 171000Z 31033G45KT 9999 FEW062 08/M02 Q1017 NOSIG
Conditions at: UGTB (TBILISI/NOVO-AL , GE) observed 1000 UTC 17 February 2019
Temperature: 8.0°C (46°F)
Dewpoint: -2.0°C (28°F) [RH = 49%]
Pressure (altimeter): 30.03 inches Hg (1017.0 mb)
Winds: from the NW (310 degrees) at 38 MPH (33 knots; 17.0 m/s)
gusting to 52 MPH (45 knots; 23.1 m/s)
Visibility: 6 or more miles (10+ km)
Ceiling: at least 12,000 feet AGL
Clouds: few clouds at 6200 feet AGL
Weather: no significant weather observed at this time

METAR text: UGTB 170930Z 32034KT CAVOK 08/M02 Q1018 NOSIG
Conditions at: UGTB (TBILISI/NOVO-AL , GE) observed 0930 UTC 17 February 2019
Temperature: 8.0°C (46°F)
Dewpoint: -2.0°C (28°F) [RH = 49%]
Pressure (altimeter): 30.06 inches Hg (1018.0 mb)
Winds: from the NW (320 degrees) at 39 MPH (34 knots; 17.5 m/s)
Visibility: 6 or more miles (10+ km)
Ceiling: ceiling and visibility are OK
Clouds: unknown
Weather: no significant weather observed at this time

METAR text: UGTB 170900Z 32032G44KT CAVOK 08/M02 Q1018 NOSIG
Conditions at: UGTB (TBILISI/NOVO-AL , GE) observed 0900 UTC 17 February 2019
Temperature: 8.0°C (46°F)
Dewpoint: -2.0°C (28°F) [RH = 49%]
Pressure (altimeter): 30.06 inches Hg (1018.0 mb)
Winds: from the NW (320 degrees) at 37 MPH (32 knots; 16.5 m/s)
gusting to 51 MPH (44 knots; 22.6 m/s)
Visibility: 6 or more miles (10+ km)
Ceiling: ceiling and visibility are OK
Clouds: unknown
Weather: no significant weather observed at this time

METAR text: UGTB 170830Z 31030KT CAVOK 08/M01 Q1018 NOSIG
Conditions at: UGTB (TBILISI/NOVO-AL , GE) observed 0830 UTC 17 February 2019
Temperature: 8.0°C (46°F)
Dewpoint: -1.0°C (30°F) [RH = 53%]
Pressure (altimeter): 30.06 inches Hg (1018.0 mb)
Winds: from the NW (310 degrees) at 34 MPH (30 knots; 15.4 m/s)
Visibility: 6 or more miles (10+ km)
Ceiling: ceiling and visibility are OK
Clouds: unknown
Weather: no significant weather observed at this time

METAR text: UGTB 170800Z 31030G41KT 9999 FEW038 07/M02 Q1018 NOSIG
Conditions at: UGTB (TBILISI/NOVO-AL , GE) observed 0800 UTC 17 February 2019
Temperature: 7.0°C (45°F)
Dewpoint: -2.0°C (28°F) [RH = 53%]
Pressure (altimeter): 30.06 inches Hg (1018.0 mb)
Winds: from the NW (310 degrees) at 34 MPH (30 knots; 15.4 m/s)
gusting to 47 MPH (41 knots; 21.1 m/s)
Visibility: 6 or more miles (10+ km)
Ceiling: at least 12,000 feet AGL
Clouds: few clouds at 3800 feet AGL
Weather: no significant weather observed at this time

METAR text: UGTB 170730Z 31027G38KT 9999 FEW037 07/M02 Q1018 NOSIG
Conditions at: UGTB (TBILISI/NOVO-AL , GE) observed 0730 UTC 17 February 2019
Temperature: 7.0°C (45°F)
Dewpoint: -2.0°C (28°F) [RH = 53%]
Pressure (altimeter): 30.06 inches Hg (1018.0 mb)
Winds: from the NW (310 degrees) at 31 MPH (27 knots; 13.9 m/s)
gusting to 44 MPH (38 knots; 19.5 m/s)
Visibility: 6 or more miles (10+ km)
Ceiling: at least 12,000 feet AGL
Clouds: few clouds at 3700 feet AGL
Weather: no significant weather observed at this time

METAR text: UGTB 170700Z 31027G37KT 9999 SCT037 07/M01 Q1019 NOSIG
Conditions at: UGTB (TBILISI/NOVO-AL , GE) observed 0700 UTC 17 February 2019
Temperature: 7.0°C (45°F)
Dewpoint: -1.0°C (30°F) [RH = 57%]
Pressure (altimeter): 30.09 inches Hg (1019.0 mb)
Winds: from the NW (310 degrees) at 31 MPH (27 knots; 13.9 m/s)
gusting to 43 MPH (37 knots; 19.0 m/s)
Visibility: 6 or more miles (10+ km)
Ceiling: at least 12,000 feet AGL
Clouds: scattered clouds at 3700 feet AGL
Weather: no significant weather observed at this time

METAR text: UGTB 170630Z 31026G37KT 9999 SCT039 07/M02 Q1019 NOSIG
Conditions at: UGTB (TBILISI/NOVO-AL , GE) observed 0630 UTC 17 February 2019
Temperature: 7.0°C (45°F)
Dewpoint: -2.0°C (28°F) [RH = 53%]
Pressure (altimeter): 30.09 inches Hg (1019.0 mb)
Winds: from the NW (310 degrees) at 30 MPH (26 knots; 13.4 m/s)
gusting to 43 MPH (37 knots; 19.0 m/s)
Visibility: 6 or more miles (10+ km)
Ceiling: at least 12,000 feet AGL
Clouds: scattered clouds at 3900 feet AGL
Weather: no significant weather observed at this time

METAR text: UGTB 170600Z 30025KT 9999 SCT037 SCT045 06/M02 Q1019 NOSIG
Conditions at: UGTB (TBILISI/NOVO-AL , GE) observed 0600 UTC 17 February 2019
Temperature: 6.0°C (43°F)
Dewpoint: -2.0°C (28°F) [RH = 56%]
Pressure (altimeter): 30.09 inches Hg (1019.0 mb)
Winds: from the WNW (300 degrees) at 29 MPH (25 knots; 12.9 m/s)
Visibility: 6 or more miles (10+ km)
Ceiling: at least 12,000 feet AGL
Clouds: scattered clouds at 3700 feet AGL
scattered clouds at 4500 feet AGL
Weather: no significant weather observed at this time

METAR text: UGTB 170530Z 30021G31KT 9999 BKN037 06/M02 Q1019 NOSIG
Conditions at: UGTB (TBILISI/NOVO-AL , GE) observed 0530 UTC 17 February 2019
Temperature: 6.0°C (43°F)
Dewpoint: -2.0°C (28°F) [RH = 56%]
Pressure (altimeter): 30.09 inches Hg (1019.0 mb)
Winds: from the WNW (300 degrees) at 24 MPH (21 knots; 10.8 m/s)
gusting to 36 MPH (31 knots; 15.9 m/s)
Visibility: 6 or more miles (10+ km)
Ceiling: 3700 feet AGL
Clouds: broken clouds at 3700 feet AGL
Weather: no significant weather observed at this time

METAR text: UGTB 170500Z 30018KT 9999 BKN036 05/M02 Q1018 NOSIG
Conditions at: UGTB (TBILISI/NOVO-AL , GE) observed 0500 UTC 17 February 2019
Temperature: 5.0°C (41°F)
Dewpoint: -2.0°C (28°F) [RH = 60%]
Pressure (altimeter): 30.06 inches Hg (1018.0 mb)
Winds: from the WNW (300 degrees) at 21 MPH (18 knots; 9.3 m/s)
Visibility: 6 or more miles (10+ km)
Ceiling: 3600 feet AGL
Clouds: broken clouds at 3600 feet AGL
Weather: no significant weather observed at this time

METAR text: UGTB 170430Z 30021G32KT 9999 BKN039 04/M02 Q1018 NOSIG
Conditions at: UGTB (TBILISI/NOVO-AL , GE) observed 0430 UTC 17 February 2019
Temperature: 4.0°C (39°F)
Dewpoint: -2.0°C (28°F) [RH = 65%]
Pressure (altimeter): 30.06 inches Hg (1018.0 mb)
Winds: from the WNW (300 degrees) at 24 MPH (21 knots; 10.8 m/s)
gusting to 37 MPH (32 knots; 16.5 m/s)
Visibility: 6 or more miles (10+ km)
Ceiling: 3900 feet AGL
Clouds: broken clouds at 3900 feet AGL
Weather: no significant weather observed at this time

METAR text: UGTB 170400Z 30021KT 9999 BKN036 04/M02 Q1018 NOSIG
Conditions at: UGTB (TBILISI/NOVO-AL , GE) observed 0400 UTC 17 February 2019
Temperature: 4.0°C (39°F)
Dewpoint: -2.0°C (28°F) [RH = 65%]
Pressure (altimeter): 30.06 inches Hg (1018.0 mb)
Winds: from the WNW (300 degrees) at 24 MPH (21 knots; 10.8 m/s)
Visibility: 6 or more miles (10+ km)
Ceiling: 3600 feet AGL
Clouds: broken clouds at 3600 feet AGL
Weather: no significant weather observed at this time

METAR text: UGTB 170330Z 30022KT 9999 FEW031 BKN053 04/M02 Q1018 NOSIG
Conditions at: UGTB (TBILISI/NOVO-AL , GE) observed 0330 UTC 17 February 2019
Temperature: 4.0°C (39°F)
Dewpoint: -2.0°C (28°F) [RH = 65%]
Pressure (altimeter): 30.06 inches Hg (1018.0 mb)
Winds: from the WNW (300 degrees) at 25 MPH (22 knots; 11.3 m/s)
Visibility: 6 or more miles (10+ km)
Ceiling: 5300 feet AGL
Clouds: few clouds at 3100 feet AGL
broken clouds at 5300 feet AGL
Weather: no significant weather observed at this time

METAR text: UGTB 170300Z 30025KT 9999 SCT032 04/M02 Q1017 NOSIG
Conditions at: UGTB (TBILISI/NOVO-AL , GE) observed 0300 UTC 17 February 2019
Temperature: 4.0°C (39°F)
Dewpoint: -2.0°C (28°F) [RH = 65%]
Pressure (altimeter): 30.03 inches Hg (1017.0 mb)
Winds: from the WNW (300 degrees) at 29 MPH (25 knots; 12.9 m/s)
Visibility: 6 or more miles (10+ km)
Ceiling: at least 12,000 feet AGL
Clouds: scattered clouds at 3200 feet AGL
Weather: no significant weather observed at this time

METAR text: UGTB 170230Z 30027KT 9999 SCT032 04/M02 Q1017 NOSIG
Conditions at: UGTB (TBILISI/NOVO-AL , GE) observed 0230 UTC 17 February 2019
Temperature: 4.0°C (39°F)
Dewpoint: -2.0°C (28°F) [RH = 65%]
Pressure (altimeter): 30.03 inches Hg (1017.0 mb)
Winds: from the WNW (300 degrees) at 31 MPH (27 knots; 13.9 m/s)
Visibility: 6 or more miles (10+ km)
Ceiling: at least 12,000 feet AGL
Clouds: scattered clouds at 3200 feet AGL
Weather: no significant weather observed at this time

METAR text: UGTB 170200Z 30034G47KT 9999 FEW032 04/M02 Q1016 NOSIG
Conditions at: UGTB (TBILISI/NOVO-AL , GE) observed 0200 UTC 17 February 2019
Temperature: 4.0°C (39°F)
Dewpoint: -2.0°C (28°F) [RH = 65%]
Pressure (altimeter): 30.00 inches Hg (1016.0 mb)
Winds: from the WNW (300 degrees) at 39 MPH (34 knots; 17.5 m/s)
gusting to 54 MPH (47 knots; 24.2 m/s)
Visibility: 6 or more miles (10+ km)
Ceiling: at least 12,000 feet AGL
Clouds: few clouds at 3200 feet AGL
Weather: no significant weather observed at this time

METAR text: UGTB 170130Z 30033G43KT 9999 FEW029 SCT033 04/M02 Q1016 NOSIG
Conditions at: UGTB (TBILISI/NOVO-AL , GE) observed 0130 UTC 17 February 2019
Temperature: 4.0°C (39°F)
Dewpoint: -2.0°C (28°F) [RH = 65%]
Pressure (altimeter): 30.00 inches Hg (1016.0 mb)
Winds: from the WNW (300 degrees) at 38 MPH (33 knots; 17.0 m/s)
gusting to 49 MPH (43 knots; 22.1 m/s)
Visibility: 6 or more miles (10+ km)
Ceiling: at least 12,000 feet AGL
Clouds: few clouds at 2900 feet AGL
scattered clouds at 3300 feet AGL
Weather: no significant weather observed at this time

METAR text: UGTB 170100Z 29023G37KT 9999 SCT032 BKN042 04/M02 Q1016 NOSIG
Conditions at: UGTB (TBILISI/NOVO-AL , GE) observed 0100 UTC 17 February 2019
Temperature: 4.0°C (39°F)
Dewpoint: -2.0°C (28°F) [RH = 65%]
Pressure (altimeter): 30.00 inches Hg (1016.0 mb)
Winds: from the WNW (290 degrees) at 26 MPH (23 knots; 11.8 m/s)
gusting to 43 MPH (37 knots; 19.0 m/s)
Visibility: 6 or more miles (10+ km)
Ceiling: 4200 feet AGL
Clouds: scattered clouds at 3200 feet AGL
broken clouds at 4200 feet AGL
Weather: no significant weather observed at this time

METAR text: UGTB 170030Z 29022G34KT 9999 SCT028 BKN049 04/M01 Q1017 NOSIG
Conditions at: UGTB (TBILISI/NOVO-AL , GE) observed 0030 UTC 17 February 2019
Temperature: 4.0°C (39°F)
Dewpoint: -1.0°C (30°F) [RH = 70%]
Pressure (altimeter): 30.03 inches Hg (1017.0 mb)
Winds: from the WNW (290 degrees) at 25 MPH (22 knots; 11.3 m/s)
gusting to 39 MPH (34 knots; 17.5 m/s)
Visibility: 6 or more miles (10+ km)
Ceiling: 4900 feet AGL
Clouds: scattered clouds at 2800 feet AGL
broken clouds at 4900 feet AGL
Weather: no significant weather observed at this time

METAR text: UGTB 170000Z 29018G28KT 9999 BKN031 04/M01 Q1017 NOSIG
Conditions at: UGTB (TBILISI/NOVO-AL , GE) observed 0000 UTC 17 February 2019
Temperature: 4.0°C (39°F)
Dewpoint: -1.0°C (30°F) [RH = 70%]
Pressure (altimeter): 30.03 inches Hg (1017.0 mb)
Winds: from the WNW (290 degrees) at 21 MPH (18 knots; 9.3 m/s)
gusting to 32 MPH (28 knots; 14.4 m/s)
Visibility: 6 or more miles (10+ km)
Ceiling: 3100 feet AGL
Clouds: broken clouds at 3100 feet AGL
Weather: no significant weather observed at this time

METAR text: UGTB 162330Z 29024KT 9999 SCT030 04/M02 Q1017 NOSIG
Conditions at: UGTB (TBILISI/NOVO-AL , GE) observed 2330 UTC 16 February 2019
Temperature: 4.0°C (39°F)
Dewpoint: -2.0°C (28°F) [RH = 65%]
Pressure (altimeter): 30.03 inches Hg (1017.0 mb)
Winds: from the WNW (290 degrees) at 28 MPH (24 knots; 12.3 m/s)
Visibility: 6 or more miles (10+ km)
Ceiling: at least 12,000 feet AGL
Clouds: scattered clouds at 3000 feet AGL
Weather: no significant weather observed at this time

METAR text: UGTB 162300Z 29031G42KT 9999 FEW030 05/M02 Q1016 NOSIG
Conditions at: UGTB (TBILISI/NOVO-AL , GE) observed 2300 UTC 16 February 2019
Temperature: 5.0°C (41°F)
Dewpoint: -2.0°C (28°F) [RH = 60%]
Pressure (altimeter): 30.00 inches Hg (1016.0 mb)
Winds: from the WNW (290 degrees) at 36 MPH (31 knots; 15.9 m/s)
gusting to 48 MPH (42 knots; 21.6 m/s)
Visibility: 6 or more miles (10+ km)
Ceiling: at least 12,000 feet AGL
Clouds: few clouds at 3000 feet AGL
Weather: no significant weather observed at this time

METAR text: UGTB 162230Z 29025KT 9999 FEW031 05/M02 Q1016 NOSIG
Conditions at: UGTB (TBILISI/NOVO-AL , GE) observed 2230 UTC 16 February 2019
Temperature: 5.0°C (41°F)
Dewpoint: -2.0°C (28°F) [RH = 60%]
Pressure (altimeter): 30.00 inches Hg (1016.0 mb)
Winds: from the WNW (290 degrees) at 29 MPH (25 knots; 12.9 m/s)
Visibility: 6 or more miles (10+ km)
Ceiling: at least 12,000 feet AGL
Clouds: few clouds at 3100 feet AGL
Weather: no significant weather observed at this time

METAR text: UGTB 162200Z 29022KT 9999 FEW034 05/M02 Q1017 NOSIG
Conditions at: UGTB (TBILISI/NOVO-AL , GE) observed 2200 UTC 16 February 2019
Temperature: 5.0°C (41°F)
Dewpoint: -2.0°C (28°F) [RH = 60%]
Pressure (altimeter): 30.03 inches Hg (1017.0 mb)
Winds: from the WNW (290 degrees) at 25 MPH (22 knots; 11.3 m/s)
Visibility: 6 or more miles (10+ km)
Ceiling: at least 12,000 feet AGL
Clouds: few clouds at 3400 feet AGL
Weather: no significant weather observed at this time

METAR text: UGTB 162130Z 30026KT 9999 FEW029 05/M01 Q1016 NOSIG
Conditions at: UGTB (TBILISI/NOVO-AL , GE) observed 2130 UTC 16 February 2019
Temperature: 5.0°C (41°F)
Dewpoint: -1.0°C (30°F) [RH = 65%]
Pressure (altimeter): 30.00 inches Hg (1016.0 mb)
Winds: from the WNW (300 degrees) at 30 MPH (26 knots; 13.4 m/s)
Visibility: 6 or more miles (10+ km)
Ceiling: at least 12,000 feet AGL
Clouds: few clouds at 2900 feet AGL
Weather: no significant weather observed at this time

METAR text: UGTB 162100Z 30025G35KT 9999 FEW033 05/M01 Q1016 NOSIG
Conditions at: UGTB (TBILISI/NOVO-AL , GE) observed 2100 UTC 16 February 2019
Temperature: 5.0°C (41°F)
Dewpoint: -1.0°C (30°F) [RH = 65%]
Pressure (altimeter): 30.00 inches Hg (1016.0 mb)
Winds: from the WNW (300 degrees) at 29 MPH (25 knots; 12.9 m/s)
gusting to 40 MPH (35 knots; 18.0 m/s)
Visibility: 6 or more miles (10+ km)
Ceiling: at least 12,000 feet AGL
Clouds: few clouds at 3300 feet AGL
Weather: no significant weather observed at this time

Forecast for: UGTB (TBILISI/NOVO-AL , GE)
Text: TAF UGTB 180500Z 1806/1906 32023KT CAVOK TX11/1811Z TN03/1903Z
Forecast period: 0600 UTC 18 February 2019 to 0600 UTC 19 February 2019
Forecast type: FROM: standard forecast or significant change
Winds: from the NW (320 degrees) at 26 MPH (23 knots; 11.8 m/s)
Visibility: 6 or more miles 10+ km)
Ceiling: unknown
Clouds: missing
Weather: no significant weather forecast for this period
Text: TEMPO 1808/1815 31035G47KT
Forecast period: 0800 to 1500 UTC 18 February 2019
Forecast type: TEMPORARY: The following changes expected for less than half the time period
Winds: from the NW (310 degrees) at 40 MPH (35 knots; 18.0 m/s)
gusting to 54 MPH (47 knots; 24.2 m/s)
Visibility: missing
Ceiling: unknown
Clouds: missing
Weather: no significant weather forecast for this period
Text: TEMPO 1816/1821 31015G27KT
Forecast period: 1600 to 2100 UTC 18 February 2019
Forecast type: TEMPORARY: The following changes expected for less than half the time period
Winds: from the NW (310 degrees) at 17 MPH (15 knots; 7.7 m/s)
gusting to 31 MPH (27 knots; 13.9 m/s)
Visibility: missing
Ceiling: unknown
Clouds: missing
Weather: no significant weather forecast for this period
Text: TEMPO 1823/1906 31035G47KT
Forecast period: 2300 UTC 18 February 2019 to 0600 UTC 19 February 2019
Forecast type: TEMPORARY: The following changes expected for less than half the time period
Winds: from the NW (310 degrees) at 40 MPH (35 knots; 18.0 m/s)
gusting to 54 MPH (47 knots; 24.2 m/s)
Visibility: missing
Ceiling: unknown
Clouds: missing
Weather: no significant weather forecast for this period